Time;durP1;ratioP1;P1;durP2;ratioP2;P2;SDS_P1;SDS_P2;PMS_P1;PMS_P2;Temp;Humidity;BMP_temperature;BMP_pressure;BME280_temperature;BME280_humidity;BME280_pressure;Samples;Min_cycle;Max_cycle;Signal;HPM_P1;HPM_P2
2022/11/23 00:00:32;;;;;;;3.08;2.60;;;;;;;;;;5072853;28;20024;-65
2022/11/23 00:02:58;;;;;;;3.25;2.58;;;;;;;;;;5073214;28;20380;-66
2022/11/23 00:05:26;;;;;;;5.65;2.78;;;;;;;;;;5072708;28;20468;-66
2022/11/23 00:07:51;;;;;;;5.70;3.67;;;;;;;;;;5070349;28;20384;-64
2022/11/23 00:10:17;;;;;;;4.13;3.30;;;;;;;;;;5072700;28;20029;-65
2022/11/23 00:12:43;;;;;;;7.45;3.20;;;;;;;;;;5073019;28;20028;-65
2022/11/23 00:15:11;;;;;;;3.80;2.72;;;;;;;;;;5072602;28;20094;-65
2022/11/23 00:17:37;;;;;;;4.07;3.20;;;;;;;;;;5054547;28;20036;-65
2022/11/23 00:20:04;;;;;;;5.38;2.95;;;;;;;;;;5073847;28;20028;-65
2022/11/23 00:22:30;;;;;;;4.53;3.15;;;;;;;;;;5074061;28;20078;-65
2022/11/23 00:24:56;;;;;;;3.83;2.83;;;;;;;;;;5074148;28;20024;-65
2022/11/23 00:27:21;;;;;;;3.85;2.90;;;;;;;;;;5076215;28;20032;-69
2022/11/23 00:29:47;;;;;;;4.22;2.90;;;;;;;;;;5058361;28;20032;-65
2022/11/23 00:32:12;;;;;;;5.00;3.10;;;;;;;;;;5079699;28;20028;-65
2022/11/23 00:34:38;;;;;;;3.75;2.63;;;;;;;;;;5082337;28;20032;-65
2022/11/23 00:37:03;;;;;;;3.42;2.88;;;;;;;;;;5083331;28;20762;-65
2022/11/23 00:39:29;;;;;;;3.28;2.85;;;;;;;;;;5089149;28;20036;-65
2022/11/23 00:41:54;;;;;;;3.67;2.90;;;;;;;;;;5093889;28;20072;-65
2022/11/23 00:44:20;;;;;;;5.30;3.00;;;;;;;;;;5073613;28;20031;-64
2022/11/23 00:46:45;;;;;;;3.90;2.85;;;;;;;;;;5055790;28;20029;-65
2022/11/23 00:49:11;;;;;;;4.22;3.03;;;;;;;;;;5073581;28;20536;-65
2022/11/23 00:51:37;;;;;;;3.55;3.00;;;;;;;;;;5073550;28;20054;-65
2022/11/23 00:54:04;;;;;;;4.00;3.00;;;;;;;;;;5073496;28;20028;-65
2022/11/23 00:56:31;;;;;;;3.30;2.88;;;;;;;;;;5073366;28;20455;-65
2022/11/23 00:58:58;;;;;;;6.95;2.80;;;;;;;;;;5073459;28;20115;-66
2022/11/23 01:01:32;;;;;;;3.53;2.72;;;;;;;;;;5073450;28;20025;-65
2022/11/23 01:04:00;;;;;;;3.63;2.92;;;;;;;;;;5073209;28;20025;-65
2022/11/23 01:06:31;;;;;;;5.63;3.15;;;;;;;;;;5073505;28;20021;-65
2022/11/23 01:09:01;;;;;;;6.45;3.50;;;;;;;;;;5083269;28;20020;-65
2022/11/23 01:11:29;;;;;;;3.63;2.90;;;;;;;;;;5093317;28;20082;-65
2022/11/23 01:13:54;;;;;;;3.33;2.83;;;;;;;;;;5075205;28;20024;-65
2022/11/23 01:16:39;;;;;;;3.60;2.80;;;;;;;;;;5093286;28;20034;-65
2022/11/23 01:19:07;;;;;;;5.13;2.92;;;;;;;;;;5093342;28;20024;-66
2022/11/23 01:21:34;;;;;;;5.65;2.95;;;;;;;;;;5093292;28;20070;-67
2022/11/23 01:24:21;;;;;;;3.83;3.00;;;;;;;;;;5093098;28;20020;-66
2022/11/23 01:26:54;;;;;;;3.83;3.08;;;;;;;;;;5092856;28;20388;-67
2022/11/23 01:29:21;;;;;;;3.58;2.75;;;;;;;;;;5092755;28;20059;-65
2022/11/23 01:31:47;;;;;;;4.43;3.20;;;;;;;;;;5092975;28;20024;-66
2022/11/23 01:34:13;;;;;;;4.75;3.03;;;;;;;;;;5093073;28;20051;-66
2022/11/23 01:36:39;;;;;;;3.63;2.70;;;;;;;;;;5093207;28;20066;-66
2022/11/23 01:39:05;;;;;;;4.97;2.63;;;;;;;;;;5092863;28;20044;-66
2022/11/23 01:41:35;;;;;;;3.45;2.70;;;;;;;;;;5092887;28;20055;-65
2022/11/23 01:44:20;;;;;;;4.27;2.80;;;;;;;;;;5092775;28;20027;-66
2022/11/23 01:46:46;;;;;;;3.83;2.90;;;;;;;;;;5085942;28;20388;-65
2022/11/23 01:49:12;;;;;;;3.50;2.85;;;;;;;;;;5069608;28;20077;-66
2022/11/23 01:51:42;;;;;;;4.38;2.80;;;;;;;;;;5069502;28;20026;-67
2022/11/23 01:54:09;;;;;;;;;;;;;;;;;;5053131;28;20380;-66
2022/11/23 01:56:38;;;;;;;3.90;3.00;;;;;;;;;;5052373;28;20429;-66
2022/11/23 01:59:08;;;;;;;3.67;2.83;;;;;;;;;;5052464;28;20036;-66
2022/11/23 02:01:34;;;;;;;3.92;2.95;;;;;;;;;;5064335;28;20653;-66
2022/11/23 02:04:00;;;;;;;4.78;2.92;;;;;;;;;;5071138;28;20054;-66
2022/11/23 02:06:26;;;;;;;3.72;2.90;;;;;;;;;;5071149;28;20036;-66
2022/11/23 02:08:52;;;;;;;3.13;2.72;;;;;;;;;;5070355;28;20024;-66
2022/11/23 02:11:18;;;;;;;4.07;2.75;;;;;;;;;;5092165;28;20051;-67
2022/11/23 02:13:46;;;;;;;4.22;2.80;;;;;;;;;;5091783;28;20400;-67
2022/11/23 02:16:12;;;;;;;2.70;2.50;;;;;;;;;;5090766;28;20032;-67
2022/11/23 02:18:42;;;;;;;3.75;3.15;;;;;;;;;;5092044;28;20020;-67
2022/11/23 02:21:07;;;;;;;3.53;2.73;;;;;;;;;;5092384;28;20027;-66
2022/11/23 02:23:58;;;;;;;4.40;3.10;;;;;;;;;;5092689;28;20315;-67
2022/11/23 02:26:30;;;;;;;3.80;2.83;;;;;;;;;;5092348;28;20475;-66
2022/11/23 02:29:10;;;;;;;3.50;2.80;;;;;;;;;;5091547;28;20028;-66
2022/11/23 02:31:35;;;;;;;4.72;2.53;;;;;;;;;;5092329;28;20038;-66
2022/11/23 02:34:01;;;;;;;5.28;2.97;;;;;;;;;;5074127;28;20032;-66
2022/11/23 02:36:26;;;;;;;3.53;2.70;;;;;;;;;;5092288;28;20430;-66
2022/11/23 02:38:53;;;;;;;3.72;2.72;;;;;;;;;;5075285;28;20021;-66
2022/11/23 02:41:19;;;;;;;3.88;2.85;;;;;;;;;;5076076;28;20039;-68
2022/11/23 02:43:47;;;;;;;4.65;2.85;;;;;;;;;;5058057;28;20692;-67
2022/11/23 02:46:14;;;;;;;3.42;2.72;;;;;;;;;;5075869;28;20040;-66
2022/11/23 02:48:39;;;;;;;3.50;2.47;;;;;;;;;;5076208;28;20348;-66
2022/11/23 02:51:05;;;;;;;3.40;2.90;;;;;;;;;;5075903;28;20027;-66
2022/11/23 02:53:30;;;;;;;4.28;2.72;;;;;;;;;;5075839;28;20025;-67
2022/11/23 02:55:56;;;;;;;3.25;2.60;;;;;;;;;;5075744;28;20029;-66
2022/11/23 02:58:21;;;;;;;4.85;2.95;;;;;;;;;;5075816;28;20020;-65
2022/11/23 03:00:47;;;;;;;3.72;2.80;;;;;;;;;;5075705;28;20505;-66
2022/11/23 03:03:12;;;;;;;3.45;2.75;;;;;;;;;;5075620;28;20029;-66
2022/11/23 03:05:38;;;;;;;2.78;2.50;;;;;;;;;;5075558;28;20498;-66
2022/11/23 03:08:04;;;;;;;3.20;2.90;;;;;;;;;;5075481;28;20455;-66
2022/11/23 03:10:29;;;;;;;4.10;2.80;;;;;;;;;;5075263;28;20039;-66
2022/11/23 03:12:55;;;;;;;2.70;2.33;;;;;;;;;;5075552;28;20025;-66
2022/11/23 03:15:22;;;;;;;4.72;2.72;;;;;;;;;;5075644;28;20031;-66
2022/11/23 03:17:47;;;;;;;5.63;2.88;;;;;;;;;;5075579;28;20031;-66
2022/11/23 03:20:13;;;;;;;4.07;2.70;;;;;;;;;;5075144;28;20033;-66
2022/11/23 03:22:39;;;;;;;3.83;2.58;;;;;;;;;;5075307;28;20077;-66
2022/11/23 03:25:04;;;;;;;4.35;2.83;;;;;;;;;;5075227;28;20468;-66
2022/11/23 03:27:32;;;;;;;4.82;2.90;;;;;;;;;;5075165;28;20024;-66
2022/11/23 03:29:58;;;;;;;3.03;2.70;;;;;;;;;;5074989;28;20021;-66
2022/11/23 03:32:23;;;;;;;4.25;2.80;;;;;;;;;;5075081;28;20465;-67
2022/11/23 03:34:49;;;;;;;2.40;2.20;;;;;;;;;;5075134;28;20095;-65
2022/11/23 03:37:15;;;;;;;4.82;2.65;;;;;;;;;;5086435;28;20034;-66
2022/11/23 03:39:40;;;;;;;3.28;2.58;;;;;;;;;;5076935;28;20521;-67
2022/11/23 03:42:06;;;;;;;2.90;2.60;;;;;;;;;;5095064;28;20036;-66
2022/11/23 03:44:31;;;;;;;3.90;2.90;;;;;;;;;;5095099;28;20047;-67
2022/11/23 03:46:58;;;;;;;3.20;2.47;;;;;;;;;;5094902;28;20046;-67
2022/11/23 03:49:23;;;;;;;4.43;2.95;;;;;;;;;;5095069;28;20020;-67
2022/11/23 03:51:49;;;;;;;3.10;2.75;;;;;;;;;;5090483;28;20020;-66
2022/11/23 03:54:14;;;;;;;3.03;2.65;;;;;;;;;;5074507;28;20035;-67
2022/11/23 03:56:40;;;;;;;4.53;2.50;;;;;;;;;;5056838;28;20024;-66
2022/11/23 03:59:05;;;;;;;3.65;2.83;;;;;;;;;;5074810;28;20055;-68
2022/11/23 04:01:31;;;;;;;3.25;2.78;;;;;;;;;;5074667;28;20024;-67
2022/11/23 04:03:57;;;;;;;3.03;2.70;;;;;;;;;;5074435;28;20021;-67
2022/11/23 04:06:22;;;;;;;3.92;2.63;;;;;;;;;;5080153;28;20024;-66
2022/11/23 04:08:48;;;;;;;3.17;2.80;;;;;;;;;;5094673;28;20024;-66
2022/11/23 04:11:13;;;;;;;3.17;2.60;;;;;;;;;;5094386;28;20048;-66
2022/11/23 04:13:39;;;;;;;4.05;2.30;;;;;;;;;;5094634;28;20553;-66
2022/11/23 04:16:06;;;;;;;3.40;2.78;;;;;;;;;;5094624;28;20032;-66
2022/11/23 04:18:31;;;;;;;2.85;2.55;;;;;;;;;;5094803;28;20024;-66
2022/11/23 04:20:57;;;;;;;5.38;2.90;;;;;;;;;;5094622;28;20081;-66
2022/11/23 04:23:22;;;;;;;2.53;2.33;;;;;;;;;;5094433;28;20461;-67
2022/11/23 04:25:48;;;;;;;3.33;2.90;;;;;;;;;;5094281;28;20111;-66
2022/11/23 04:28:13;;;;;;;2.88;2.58;;;;;;;;;;5094415;28;20028;-66
2022/11/23 04:30:39;;;;;;;3.17;2.88;;;;;;;;;;5094244;28;20020;-66
2022/11/23 04:33:05;;;;;;;2.80;2.28;;;;;;;;;;5094246;28;20034;-66
2022/11/23 04:35:30;;;;;;;3.67;2.40;;;;;;;;;;5094014;28;20024;-67
2022/11/23 04:37:56;;;;;;;3.47;2.67;;;;;;;;;;5094106;28;20041;-66
2022/11/23 04:40:21;;;;;;;3.10;2.75;;;;;;;;;;5094365;28;20020;-65
2022/11/23 04:42:47;;;;;;;2.63;2.42;;;;;;;;;;5094007;28;20024;-66
2022/11/23 04:45:12;;;;;;;2.78;2.58;;;;;;;;;;5094034;28;20028;-66
2022/11/23 04:47:38;;;;;;;4.00;2.67;;;;;;;;;;5093861;28;20024;-66
2022/11/23 04:50:04;;;;;;;4.18;2.83;;;;;;;;;;5093605;28;20033;-66
2022/11/23 04:52:29;;;;;;;4.47;2.65;;;;;;;;;;5093853;28;20364;-65
2022/11/23 04:54:55;;;;;;;3.42;3.00;;;;;;;;;;5093760;28;20028;-66
2022/11/23 04:57:20;;;;;;;3.58;2.70;;;;;;;;;;5093732;28;20032;-66
2022/11/23 04:59:46;;;;;;;3.63;2.72;;;;;;;;;;5093733;28;20024;-66
2022/11/23 05:02:12;;;;;;;3.00;2.70;;;;;;;;;;5092673;28;20024;-66
2022/11/23 05:04:37;;;;;;;2.85;2.58;;;;;;;;;;5093482;28;20024;-66
2022/11/23 05:07:03;;;;;;;3.95;2.50;;;;;;;;;;5075291;28;20119;-66
2022/11/23 05:09:28;;;;;;;3.10;2.47;;;;;;;;;;5073474;28;20029;-66
2022/11/23 05:11:54;;;;;;;3.10;2.50;;;;;;;;;;5072838;28;20131;-66
2022/11/23 05:14:19;;;;;;;3.75;2.45;;;;;;;;;;5055208;28;20020;-67
2022/11/23 05:16:45;;;;;;;2.83;2.58;;;;;;;;;;5073190;28;20456;-66
2022/11/23 05:19:10;;;;;;;3.85;2.78;;;;;;;;;;5073153;28;20032;-66
2022/11/23 05:21:36;;;;;;;2.63;2.42;;;;;;;;;;5073121;28;20029;-66
2022/11/23 05:24:01;;;;;;;2.80;2.60;;;;;;;;;;5073026;28;20020;-66
2022/11/23 05:26:27;;;;;;;3.40;2.53;;;;;;;;;;5072887;28;20024;-67
2022/11/23 05:28:52;;;;;;;4.07;2.72;;;;;;;;;;5073035;28;20029;-67
2022/11/23 05:31:18;;;;;;;3.38;2.60;;;;;;;;;;5073010;28;20020;-67
2022/11/23 05:33:44;;;;;;;3.65;2.60;;;;;;;;;;5072865;28;20020;-67
2022/11/23 05:36:12;;;;;;;2.50;2.30;;;;;;;;;;5085372;28;20028;-67
2022/11/23 05:38:39;;;;;;;3.45;2.50;;;;;;;;;;5075002;28;20028;-67
2022/11/23 05:41:05;;;;;;;2.90;2.47;;;;;;;;;;5092919;28;20028;-67
2022/11/23 05:43:31;;;;;;;3.33;2.83;;;;;;;;;;5093055;28;20038;-67
2022/11/23 05:46:00;;;;;;;2.92;2.60;;;;;;;;;;5092860;28;20081;-67
2022/11/23 05:48:26;;;;;;;3.53;2.63;;;;;;;;;;5093486;28;20037;-67
2022/11/23 05:50:52;;;;;;;2.80;2.45;;;;;;;;;;5092871;28;20039;-68
2022/11/23 05:53:18;;;;;;;3.80;2.45;;;;;;;;;;5092765;28;20024;-68
2022/11/23 05:55:44;;;;;;;2.60;2.40;;;;;;;;;;5092881;28;20024;-67
2022/11/23 05:58:09;;;;;;;3.97;2.72;;;;;;;;;;5092739;28;20020;-69
2022/11/23 06:00:35;;;;;;;3.78;2.47;;;;;;;;;;5092814;28;20085;-67
2022/11/23 06:03:01;;;;;;;3.53;2.63;;;;;;;;;;5092812;28;20052;-67
2022/11/23 06:05:27;;;;;;;3.20;2.50;;;;;;;;;;5092876;28;20157;-67
2022/11/23 06:07:53;;;;;;;3.60;2.55;;;;;;;;;;5092442;28;20463;-66
2022/11/23 06:10:18;;;;;;;2.83;2.60;;;;;;;;;;5092819;28;20084;-68
2022/11/23 06:12:44;;;;;;;2.80;2.40;;;;;;;;;;5092175;28;20059;-66
2022/11/23 06:15:10;;;;;;;2.85;2.63;;;;;;;;;;5091962;28;20498;-66
2022/11/23 06:17:36;;;;;;;2.97;2.50;;;;;;;;;;5092045;28;20028;-66
2022/11/23 06:20:04;;;;;;;2.88;2.53;;;;;;;;;;5092223;28;20048;-67
2022/11/23 06:22:29;;;;;;;2.83;2.47;;;;;;;;;;5092225;28;20024;-67
2022/11/23 06:24:55;;;;;;;3.03;2.50;;;;;;;;;;5092582;28;20082;-68
2022/11/23 06:27:20;;;;;;;3.53;2.63;;;;;;;;;;5092240;28;20384;-67
2022/11/23 06:29:46;;;;;;;3.78;2.47;;;;;;;;;;5074063;28;20031;-67
2022/11/23 06:32:12;;;;;;;2.78;2.50;;;;;;;;;;5092221;28;20040;-66
2022/11/23 06:34:37;;;;;;;2.83;2.50;;;;;;;;;;5067329;28;20017;-66
2022/11/23 06:37:03;;;;;;;2.70;2.50;;;;;;;;;;5054007;28;20039;-66
2022/11/23 06:39:28;;;;;;;3.05;2.58;;;;;;;;;;5071983;28;20384;-66
2022/11/23 06:41:54;;;;;;;2.80;2.60;;;;;;;;;;5053678;28;20456;-65
2022/11/23 06:44:20;;;;;;;2.92;2.60;;;;;;;;;;5071921;28;20029;-66
2022/11/23 06:46:45;;;;;;;3.38;2.67;;;;;;;;;;5071901;28;20062;-66
2022/11/23 06:49:11;;;;;;;2.70;2.35;;;;;;;;;;5071905;28;20457;-66
2022/11/23 06:51:36;;;;;;;3.50;2.50;;;;;;;;;;5054256;28;20028;-68
2022/11/23 06:54:02;;;;;;;3.17;2.88;;;;;;;;;;5071802;28;20013;-66
2022/11/23 06:56:27;;;;;;;3.00;2.50;;;;;;;;;;5053866;28;20060;-66
2022/11/23 06:58:53;;;;;;;8.93;3.13;;;;;;;;;;5053931;28;20025;-67
2022/11/23 07:01:18;;;;;;;2.92;2.67;;;;;;;;;;5072080;28;20023;-66
2022/11/23 07:03:44;;;;;;;3.40;2.70;;;;;;;;;;5072407;28;20494;-67
2022/11/23 07:06:10;;;;;;;2.85;2.55;;;;;;;;;;5091780;28;20031;-68
2022/11/23 07:08:42;;;;;;;3.00;2.50;;;;;;;;;;5091867;28;20410;-66
2022/11/23 07:11:09;;;;;;;2.80;2.47;;;;;;;;;;5091710;28;20016;-66
2022/11/23 07:13:35;;;;;;;2.50;2.30;;;;;;;;;;5092048;28;20024;-66
2022/11/23 07:16:00;;;;;;;2.53;2.30;;;;;;;;;;5091756;28;20581;-66
2022/11/23 07:18:26;;;;;;;3.40;2.67;;;;;;;;;;5091895;28;20023;-69
2022/11/23 07:20:51;;;;;;;3.05;2.55;;;;;;;;;;5092044;28;20081;-68
2022/11/23 07:23:17;;;;;;;4.07;2.40;;;;;;;;;;5073584;28;20024;-66
2022/11/23 07:25:43;;;;;;;3.00;2.47;;;;;;;;;;5074480;28;20060;-66
2022/11/23 07:28:11;;;;;;;4.10;2.60;;;;;;;;;;5095210;28;20066;-66
2022/11/23 07:30:36;;;;;;;2.60;2.40;;;;;;;;;;5095450;28;20024;-65
2022/11/23 07:33:07;;;;;;;5.15;2.70;;;;;;;;;;5095623;28;20024;-65
2022/11/23 07:35:33;;;;;;;3.75;2.72;;;;;;;;;;5095593;28;20016;-66
2022/11/23 07:37:59;;;;;;;3.70;2.58;;;;;;;;;;5095156;28;20032;-65
2022/11/23 07:40:25;;;;;;;3.35;2.67;;;;;;;;;;5095130;28;20031;-65
2022/11/23 07:42:51;;;;;;;3.65;2.50;;;;;;;;;;5095196;28;20468;-66
2022/11/23 07:45:17;;;;;;;3.78;2.50;;;;;;;;;;5095108;28;20099;-68
2022/11/23 07:47:42;;;;;;;3.22;2.60;;;;;;;;;;5094971;28;20491;-66
2022/11/23 07:50:10;;;;;;;3.47;2.60;;;;;;;;;;5094829;28;20028;-67
2022/11/23 07:52:36;;;;;;;3.03;2.45;;;;;;;;;;5095184;28;20043;-66
2022/11/23 07:55:02;;;;;;;4.07;2.75;;;;;;;;;;5094884;28;20020;-66
2022/11/23 07:57:28;;;;;;;3.95;2.40;;;;;;;;;;5095102;28;20510;-68
2022/11/23 07:59:53;;;;;;;3.15;2.55;;;;;;;;;;5094842;28;20030;-67
2022/11/23 08:02:20;;;;;;;3.05;2.30;;;;;;;;;;5094798;28;20016;-67
2022/11/23 08:04:45;;;;;;;2.63;2.40;;;;;;;;;;5078479;28;20024;-66
2022/11/23 08:07:11;;;;;;;3.00;2.33;;;;;;;;;;5074618;28;20357;-67
2022/11/23 08:09:37;;;;;;;2.97;2.63;;;;;;;;;;5074377;28;20104;-65
2022/11/23 08:12:03;;;;;;;2.78;2.58;;;;;;;;;;5056072;28;20044;-66
2022/11/23 08:14:28;;;;;;;2.67;2.33;;;;;;;;;;5074613;28;20025;-65
2022/11/23 08:16:54;;;;;;;4.13;2.65;;;;;;;;;;5074219;28;20028;-66
2022/11/23 08:19:19;;;;;;;3.08;2.33;;;;;;;;;;5074365;28;20536;-66
2022/11/23 08:21:45;;;;;;;2.85;2.40;;;;;;;;;;5056513;28;20379;-67
2022/11/23 08:24:11;;;;;;;2.85;2.50;;;;;;;;;;5056013;28;20107;-66
2022/11/23 08:26:36;;;;;;;3.92;2.45;;;;;;;;;;5074046;28;20476;-66
2022/11/23 08:29:02;;;;;;;3.03;2.42;;;;;;;;;;5074249;28;20027;-66
2022/11/23 08:31:28;;;;;;;3.10;2.47;;;;;;;;;;5074297;28;20485;-67
2022/11/23 08:33:54;;;;;;;2.63;2.42;;;;;;;;;;5084643;28;20068;-66
2022/11/23 08:36:19;;;;;;;3.83;2.70;;;;;;;;;;5094108;28;20032;-65
2022/11/23 08:38:45;;;;;;;2.67;2.42;;;;;;;;;;5076046;28;20020;-67
2022/11/23 08:41:10;;;;;;;2.92;2.35;;;;;;;;;;5094085;28;20073;-65
2022/11/23 08:43:36;;;;;;;3.42;2.72;;;;;;;;;;5093993;28;20028;-66
2022/11/23 08:46:03;;;;;;;2.83;2.35;;;;;;;;;;5093740;28;20034;-66
2022/11/23 08:48:29;;;;;;;2.83;2.50;;;;;;;;;;5093975;28;20017;-66
2022/11/23 08:50:59;;;;;;;2.72;2.53;;;;;;;;;;5059208;28;20024;-66
2022/11/23 08:53:25;;;;;;;2.92;2.47;;;;;;;;;;5093767;28;20476;-65
2022/11/23 08:55:51;;;;;;;3.35;2.72;;;;;;;;;;5093798;28;20039;-65
2022/11/23 08:58:16;;;;;;;4.20;2.60;;;;;;;;;;5093703;28;20028;-66
2022/11/23 09:00:42;;;;;;;2.95;2.53;;;;;;;;;;5072259;28;20026;-65
2022/11/23 09:03:07;;;;;;;2.97;2.42;;;;;;;;;;5057214;28;20159;-66
2022/11/23 09:05:35;;;;;;;2.80;2.53;;;;;;;;;;5054319;28;20032;-66
2022/11/23 09:08:01;;;;;;;2.72;2.20;;;;;;;;;;5071779;28;20032;-66
2022/11/23 09:10:27;;;;;;;3.25;2.58;;;;;;;;;;5072421;28;20017;-67
2022/11/23 09:12:53;;;;;;;2.80;2.50;;;;;;;;;;5070198;28;20048;-66
2022/11/23 09:15:19;;;;;;;2.92;2.63;;;;;;;;;;5072378;28;20040;-64
2022/11/23 09:17:44;;;;;;;3.30;2.45;;;;;;;;;;5075683;28;20020;-65
2022/11/23 09:20:11;;;;;;;2.80;2.50;;;;;;;;;;5073984;28;20041;-66
2022/11/23 09:22:36;;;;;;;2.42;2.22;;;;;;;;;;5081907;28;20078;-66
2022/11/23 09:25:03;;;;;;;3.15;2.60;;;;;;;;;;5078676;28;20036;-66
2022/11/23 09:27:29;;;;;;;2.85;2.53;;;;;;;;;;5078572;28;20028;-65
2022/11/23 09:29:54;;;;;;;2.63;2.33;;;;;;;;;;5083085;28;20536;-69
2022/11/23 09:32:20;;;;;;;2.85;2.25;;;;;;;;;;5064490;28;20031;-69
2022/11/23 09:34:45;;;;;;;3.00;2.50;;;;;;;;;;5077846;28;20043;-66
2022/11/23 09:37:14;;;;;;;2.85;2.65;;;;;;;;;;5084398;28;20056;-66
2022/11/23 09:39:40;;;;;;;2.80;2.40;;;;;;;;;;5048088;28;20476;-66
2022/11/23 09:42:17;;;;;;;3.00;2.60;;;;;;;;;;5079881;28;20038;-65
2022/11/23 09:44:58;;;;;;;3.15;2.60;;;;;;;;;;5091131;28;20024;-66
2022/11/23 09:47:35;;;;;;;2.90;2.30;;;;;;;;;;5091067;28;20039;-65
2022/11/23 09:50:06;;;;;;;2.97;2.58;;;;;;;;;;5090500;28;20030;-66
2022/11/23 09:52:35;;;;;;;3.00;2.50;;;;;;;;;;5072864;28;20069;-67
2022/11/23 09:55:10;;;;;;;2.50;2.30;;;;;;;;;;5091352;28;20027;-67
2022/11/23 09:57:39;;;;;;;2.80;2.60;;;;;;;;;;5091233;28;20027;-67
2022/11/23 10:00:22;;;;;;;3.00;2.70;;;;;;;;;;5090743;28;20118;-68
2022/11/23 10:02:48;;;;;;;2.53;2.33;;;;;;;;;;5090842;28;20069;-66
2022/11/23 10:05:21;;;;;;;2.90;2.60;;;;;;;;;;5090884;28;20032;-68
2022/11/23 10:08:12;;;;;;;3.35;2.50;;;;;;;;;;5090881;28;20113;-67
2022/11/23 10:10:43;;;;;;;2.65;2.20;;;;;;;;;;5067395;28;20484;-66
2022/11/23 10:13:23;;;;;;;2.63;2.40;;;;;;;;;;5080523;28;20050;-67
2022/11/23 10:16:19;;;;;;;3.50;3.20;;;;;;;;;;5090975;28;20051;-66
2022/11/23 10:19:02;;;;;;;4.20;2.50;;;;;;;;;;5072190;28;20037;-66
2022/11/23 10:21:54;;;;;;;2.65;2.30;;;;;;;;;;5070769;28;20111;-66
2022/11/23 10:24:27;;;;;;;3.47;2.65;;;;;;;;;;5070683;28;20112;-66
2022/11/23 10:26:53;;;;;;;4.05;2.63;;;;;;;;;;5070750;28;20060;-67
2022/11/23 10:29:28;;;;;;;3.20;2.45;;;;;;;;;;5070663;28;20435;-67
2022/11/23 10:31:54;;;;;;;2.60;2.40;;;;;;;;;;5070719;28;20052;-66
2022/11/23 10:34:37;;;;;;;3.10;2.67;;;;;;;;;;5070541;28;20063;-69
2022/11/23 10:37:03;;;;;;;4.90;2.75;;;;;;;;;;5075970;28;20068;-69
2022/11/23 10:39:30;;;;;;;2.78;2.38;;;;;;;;;;5076609;28;20447;-66
2022/11/23 10:42:22;;;;;;;2.50;2.30;;;;;;;;;;5087596;28;20107;-67
2022/11/23 10:44:50;;;;;;;2.95;2.35;;;;;;;;;;5081269;28;20476;-68
2022/11/23 10:47:49;;;;;;;2.67;2.47;;;;;;;;;;5068807;28;20036;-66
2022/11/23 10:50:28;;;;;;;2.50;2.30;;;;;;;;;;5053377;28;20094;-67
2022/11/23 10:53:25;;;;;;;3.05;2.75;;;;;;;;;;5070379;28;20037;-66
2022/11/23 10:56:00;;;;;;;2.40;2.20;;;;;;;;;;5070380;28;20379;-68
2022/11/23 10:58:33;;;;;;;2.63;2.42;;;;;;;;;;5070415;28;20027;-66
2022/11/23 11:01:04;;;;;;;3.00;2.70;;;;;;;;;;5060167;28;20028;-69
2022/11/23 11:03:32;;;;;;;;;;;;;;;;;;5083444;28;20103;-68
2022/11/23 11:05:58;;;;;;;2.80;2.50;;;;;;;;;;5065461;28;20007;-67
2022/11/23 11:08:36;;;;;;;2.85;2.47;;;;;;;;;;5083378;28;20028;-69
2022/11/23 11:11:20;;;;;;;2.63;2.42;;;;;;;;;;5081588;28;20051;-67
2022/11/23 11:13:47;;;;;;;3.40;2.60;;;;;;;;;;5085972;28;20028;-66
2022/11/23 11:16:33;;;;;;;3.80;2.47;;;;;;;;;;5082211;28;20109;-67
2022/11/23 11:19:39;;;;;;;2.63;2.30;;;;;;;;;;5084787;28;20349;-69
2022/11/23 11:22:26;;;;;;;3.80;2.53;;;;;;;;;;5088591;28;20040;-69
2022/11/23 11:24:53;;;;;;;3.03;2.40;;;;;;;;;;5068928;28;20607;-68
2022/11/23 11:27:23;;;;;;;2.60;2.40;;;;;;;;;;5073907;28;20029;-68
2022/11/23 11:30:21;;;;;;;2.35;2.10;;;;;;;;;;5073998;28;20028;-68
2022/11/23 11:33:10;;;;;;;2.97;2.55;;;;;;;;;;5073748;28;20033;-66
2022/11/23 11:35:39;;;;;;;3.38;2.58;;;;;;;;;;5071554;28;20353;-65
2022/11/23 11:38:17;;;;;;;5.35;2.70;;;;;;;;;;5073566;28;20035;-68
2022/11/23 11:40:47;;;;;;;3.38;2.50;;;;;;;;;;5073548;28;20035;-67
2022/11/23 11:43:16;;;;;;;4.25;2.60;;;;;;;;;;5073539;28;20036;-67
2022/11/23 11:45:47;;;;;;;2.55;2.35;;;;;;;;;;5070986;28;20520;-67
2022/11/23 11:48:25;;;;;;;2.42;2.22;;;;;;;;;;5072666;28;20040;-67
2022/11/23 11:51:09;;;;;;;3.03;2.53;;;;;;;;;;5080564;28;20047;-66
2022/11/23 11:54:20;;;;;;;2.53;2.22;;;;;;;;;;5058986;28;20032;-67
2022/11/23 11:56:50;;;;;;;3.17;2.45;;;;;;;;;;5077374;28;20036;-66
2022/11/23 11:59:19;;;;;;;;;;;;;;;;;;5062081;28;20016;-66
2022/11/23 12:02:13;;;;;;;2.53;2.33;;;;;;;;;;5071900;28;19913;-66
2022/11/23 12:04:47;;;;;;;3.00;2.25;;;;;;;;;;5055058;28;20093;-65
2022/11/23 12:07:21;;;;;;;2.75;2.33;;;;;;;;;;5071931;28;20040;-66
2022/11/23 12:09:51;;;;;;;3.00;2.45;;;;;;;;;;5070936;28;20426;-65
2022/11/23 12:12:20;;;;;;;4.00;2.38;;;;;;;;;;5072000;28;20045;-66
2022/11/23 12:14:46;;;;;;;2.78;2.55;;;;;;;;;;5073138;28;20039;-66
2022/11/23 12:17:46;;;;;;;2.80;2.50;;;;;;;;;;5071338;28;20040;-68
2022/11/23 12:20:37;;;;;;;5.70;2.83;;;;;;;;;;5028655;28;20507;-65
2022/11/23 12:23:08;;;;;;;2.92;2.60;;;;;;;;;;5071373;28;20028;-65
2022/11/23 12:25:39;;;;;;;2.70;2.50;;;;;;;;;;5072707;28;20519;-65
2022/11/23 12:28:16;;;;;;;2.50;2.13;;;;;;;;;;5072400;28;20033;-65
2022/11/23 12:31:01;;;;;;;3.05;2.75;;;;;;;;;;5071177;28;20025;-66
2022/11/23 12:33:38;;;;;;;2.83;2.50;;;;;;;;;;5069232;28;20098;-64
2022/11/23 12:36:12;;;;;;;4.05;2.70;;;;;;;;;;5072507;28;20017;-64
2022/11/23 12:38:53;;;;;;;3.72;2.80;;;;;;;;;;5057008;28;20043;-66
2022/11/23 12:41:37;;;;;;;4.80;2.40;;;;;;;;;;5072575;28;20067;-65
2022/11/23 12:44:40;;;;;;;4.82;2.40;;;;;;;;;;5072204;28;20128;-64
2022/11/23 12:47:45;;;;;;;2.95;2.50;;;;;;;;;;5072307;28;20032;-63
2022/11/23 12:50:34;;;;;;;3.00;2.67;;;;;;;;;;5084328;28;20028;-65
2022/11/23 12:53:05;;;;;;;3.72;2.47;;;;;;;;;;5092330;28;20038;-63
2022/11/23 12:55:30;;;;;;;3.30;2.60;;;;;;;;;;5092106;28;20016;-68
2022/11/23 12:58:23;;;;;;;2.92;2.60;;;;;;;;;;5076447;28;20020;-67
2022/11/23 13:01:17;;;;;;;3.42;2.30;;;;;;;;;;5063515;28;20357;-64
2022/11/23 13:04:11;;;;;;;3.88;2.58;;;;;;;;;;5073429;28;20108;-64
2022/11/23 13:06:56;;;;;;;3.60;2.88;;;;;;;;;;5080555;28;20027;-67
2022/11/23 13:10:06;;;;;;;3.03;2.25;;;;;;;;;;5075509;28;20105;-65
2022/11/23 13:12:56;;;;;;;3.83;2.38;;;;;;;;;;5078142;28;20036;-67
2022/11/23 13:16:05;;;;;;;2.60;2.40;;;;;;;;;;5072183;28;20040;-65
2022/11/23 13:18:45;;;;;;;2.87;2.60;;;;;;;;;;5071565;28;20039;-64
2022/11/23 13:21:24;;;;;;;2.83;2.47;;;;;;;;;;5071439;28;20281;-66
2022/11/23 13:23:50;;;;;;;2.40;2.20;;;;;;;;;;5070556;28;20652;-65
2022/11/23 13:26:20;;;;;;;3.60;2.60;;;;;;;;;;5052077;28;20024;-65
2022/11/23 13:28:47;;;;;;;;;;;;;;;;;;5069837;28;20086;-66
2022/11/23 13:31:15;;;;;;;3.25;2.70;;;;;;;;;;5068414;28;20652;-66
2022/11/23 13:33:43;;;;;;;5.95;2.67;;;;;;;;;;5070962;28;20122;-67
2022/11/23 13:36:39;;;;;;;2.72;2.53;;;;;;;;;;5070957;28;20024;-65
2022/11/23 13:39:42;;;;;;;3.05;2.60;;;;;;;;;;5071242;28;20158;-68
2022/11/23 13:42:10;;;;;;;2.67;2.38;;;;;;;;;;5071123;28;20796;-65
2022/11/23 13:44:35;;;;;;;2.70;2.30;;;;;;;;;;5052014;28;20101;-66
2022/11/23 13:47:08;;;;;;;3.97;2.70;;;;;;;;;;5071314;28;20111;-65
2022/11/23 13:49:43;;;;;;;3.83;2.25;;;;;;;;;;5071041;28;20032;-65
2022/11/23 13:52:21;;;;;;;2.50;2.30;;;;;;;;;;5071190;28;20029;-66
2022/11/23 13:55:12;;;;;;;3.90;2.80;;;;;;;;;;5071196;28;20020;-65
2022/11/23 13:57:40;;;;;;;2.80;2.50;;;;;;;;;;5067675;28;20517;-65
2022/11/23 14:00:44;;;;;;;4.78;2.55;;;;;;;;;;5052573;28;20029;-65
2022/11/23 14:03:49;;;;;;;2.67;2.42;;;;;;;;;;5070182;28;20490;-65
2022/11/23 14:06:15;;;;;;;2.65;2.45;;;;;;;;;;5055017;28;20484;-65
2022/11/23 14:08:41;;;;;;;3.03;2.60;;;;;;;;;;5070777;28;20029;-65
2022/11/23 14:11:13;;;;;;;2.63;2.42;;;;;;;;;;5079588;28;20024;-65
2022/11/23 14:13:45;;;;;;;2.80;2.50;;;;;;;;;;5090786;28;20123;-65
2022/11/23 14:16:14;;;;;;;2.75;2.42;;;;;;;;;;5091020;28;20391;-68
2022/11/23 14:18:59;;;;;;;2.97;2.30;;;;;;;;;;5090736;28;20032;-67
2022/11/23 14:21:46;;;;;;;4.70;2.55;;;;;;;;;;5072872;28;20028;-64
2022/11/23 14:24:24;;;;;;;2.40;2.20;;;;;;;;;;5090817;28;20111;-65
2022/11/23 14:27:07;;;;;;;2.42;2.22;;;;;;;;;;5090517;28;20064;-64
2022/11/23 14:29:44;;;;;;;2.40;2.05;;;;;;;;;;5087285;28;20020;-64
2022/11/23 14:32:38;;;;;;;2.65;2.35;;;;;;;;;;5083800;28;20104;-68
2022/11/23 14:35:32;;;;;;;4.18;2.65;;;;;;;;;;5082850;28;20037;-64
2022/11/23 14:38:35;;;;;;;3.60;2.45;;;;;;;;;;5093749;28;20039;-66
2022/11/23 14:41:08;;;;;;;2.60;2.33;;;;;;;;;;5091577;28;20046;-66
2022/11/23 14:43:35;;;;;;;2.80;2.47;;;;;;;;;;5091138;28;20035;-66
2022/11/23 14:46:03;;;;;;;3.08;2.38;;;;;;;;;;5089262;28;20028;-66
2022/11/23 14:48:31;;;;;;;4.10;2.33;;;;;;;;;;5094501;28;20031;-64
2022/11/23 14:51:01;;;;;;;2.80;2.40;;;;;;;;;;5078200;28;20029;-66
2022/11/23 14:53:32;;;;;;;2.50;2.30;;;;;;;;;;5077056;28;20211;-65
2022/11/23 14:55:58;;;;;;;2.85;2.25;;;;;;;;;;5074056;28;20058;-65
2022/11/23 14:58:27;;;;;;;2.40;2.20;;;;;;;;;;5074315;28;20519;-65
2022/11/23 15:00:58;;;;;;;2.40;2.15;;;;;;;;;;5079485;28;20020;-67
2022/11/23 15:03:28;;;;;;;2.50;2.30;;;;;;;;;;5066602;28;20531;-64